Clemson, SC (29634)

5:22 PM EDT on March 28, 2017 (GMT -0400)
Clemson University WeatherSTEM | | Change Station

Elev 0 ft 34.68 °N, 82.84 °W | Updated 2 minutes ago

Mostly Cloudy
Mostly Cloudy
79.6 °F
Feels Like 80 °F
N
8.0
Wind Variable Wind from West

Today
High -- | Low -- °F
--% Chance of Precip.
Yesterday
High -- | Low -- °F
Precip. -- in
Pressure 29.88 in
Visibility 10.0 miles
Clouds Mostly Cloudy 6500 ft
Heat Index 80 °F
Dew Point 54 °F
Humidity 41%
Rainfall 0.63 in
Snow Depth Not available.
7:23 AM 7:49 PM
New Moon, 1% visible
METAR KCEU 282054Z AUTO 27008KT 10SM BKN065 27/12 A2991 RMK AO2 SLP118 T02720117 56013
Pressure 29.88 in
Visibility 10.0 miles
Clouds Mostly Cloudy 6500 ft
Heat Index 80 °F
Dew Point 54 °F
Humidity 41%
Rainfall 0.63 in
Snow Depth Not available.
7:23 AM 7:49 PM
New Moon, 1% visible
METAR KCEU 282054Z AUTO 27008KT 10SM BKN065 27/12 A2991 RMK AO2 SLP118 T02720117 56013

Get Severe Weather Alerts

Thanks for signing up!

Be on the lookout for a verification email in your inbox.

You'll start receiving the daily forecast at 8 AM.

×

10-Day Weather Forecast

Almanac

Astronomy

Mar. 28, 2017 Rise Set
Actual Time
Civil Twilight
Nautical Twilight
Astronomical Twilight
Moon
Length of Visible Light
Length of Day
Tomorrow will be .
, % of the Moon is Illuminated

Today's Extremes

State Highs State Lows

Community

WunderPhotos

Upload Photos

1,962,540 photos uploaded!

WunderBlog® & News

Nearby

Air Quality

  Air Quality AQ Index Pollutant
Not available.

Snow Depth

Station Depth Elevation

Earthquake Activity

City Distance Mag. Time & Date
Minimum magnitude displayed is 2.5.

Earthquake Activity

City Distance Mag. Time & Date
Minimum magnitude displayed is 2.5.

Coastal Water Temperatures

Place Temperature

Stations

Nearby Weather Stations

Station Location Temp. Windchill Dew Point Humidity Wind Precip. Elev Updated Type
                   

Watches & Warnings

There are currently no watches in effect.